Weather observations for the past three days for
Las Vegas - Henderson Executive Airport
Metric (Imperial)
Date Time (pdt) Wind (kph) Vis. (km) Weather Sky Cond. Temperature (ºC) Relative Humidity Wind Chill (°C) Heat Index (°C) Pressure Precipitation (cm)
Air Dwpt 6 hour altimeter (cm) sea level (mb) 1 hr 3 hr 6 hr
Max. Min.
07 09:56 Vrbl 7 16.09 Fair CLR 26.1 -5 12% 25 76.35 1017.0
07 08:56 Calm 16.09 Fair CLR 24.4 -3.9 15% 24 76.38 1017.4
07 07:56 SW 6 16.09 Fair CLR 22.2 -2.8 19% 76.38 1017.6
07 06:56 S 7 16.09 Fair CLR 18.3 -0.6 28% 76.38 1017.7
07 05:56 S 11 16.09 Fair CLR 15.6 -0.6 33% 76.33 1017.3
07 04:56 S 11 16.09 Fair CLR 16.1 -1.1 22.8 16.1 31% 76.3 1017.1
07 03:56 SE 9 16.09 Fair CLR 17.2 0.6 33% 76.3 1017.0
07 02:56 S 13 16.09 Fair CLR 18.3 0.6 31% 76.3 1016.7
07 01:56 S 13 16.09 Fair CLR 18.9 0 28% 76.3 1016.9
07 00:56 Calm 16.09 Fair CLR 21.7 0.6 25% 76.3 1016.8
06 23:56 S 11 16.09 Fair CLR 20.6 -1.1 23% 76.25 1016.3
06 22:56 S 13 16.09 Fair CLR 23.3 -1.1 28.9 21.7 20% 76.23 1015.6
06 21:56 S 11 16.09 Fair CLR 23.3 -1.1 20% 76.2 1015.3
06 20:56 S 7 16.09 Fair CLR 25 -0.6 18% 25 76.15 1014.8
06 19:56 Calm 16.09 Fair CLR 27.8 0 16% 27 76.1 1013.9
06 18:56 SE 6 16.09 Fair CLR 27.8 0 16% 27 76.07 1013.7
06 17:56 Calm 16.09 Fair CLR 28.3 0.6 17% 27 76.07 1013.8
06 16:56 N 11 16.09 Fair CLR 28.3 1.1 28.9 23.3 17% 27 76.07 1013.8
06 15:56 E 9 16.09 Fair CLR 28.3 1.1 17% 27 76.12 1014.3
06 14:56 E 15 16.09 Fair CLR 27.8 1.7 18% 27 76.17 1015.1
06 13:56 Vrbl 9 16.09 Fair CLR 26.1 1.7 20% 26 76.23 1015.9
06 12:56 Vrbl 6 16.09 Fair CLR 25 2.2 23% 25 76.25 1016.3
06 11:56 Calm 16.09 Fair CLR 25 2.2 23% 25 76.28 1016.7
06 10:56 W 13 16.09 Fair CLR 23.9 1.7 23.9 13.9 23% 25 76.3 1016.9
06 09:56 Calm 16.09 Fair CLR 22.2 1.7 26% 76.3 1016.9
06 08:56 S 13 16.09 Fair CLR 20.6 2.2 30% 76.28 1016.7
06 07:56 SW 17 16.09 Fair CLR 18.3 3.3 37% 76.25 1016.5
06 06:56 SW 17 16.09 Fair CLR 15.6 2.8 42% 76.2 1016.1
06 05:56 SW 15 16.09 Fair CLR 13.9 2.2 45% 76.15 1015.4
06 04:56 SW 20 16.09 Fair CLR 14.4 2.2 18.9 14.4 44% 76.1 1014.8
06 03:56 S 19 16.09 Fair CLR 16.1 2.2 39% 76.07 1014.0
06 02:56 S 28 16.09 Fair CLR 16.7 1.7 37% 76.02 1013.4
06 01:56 S 22 16.09 Fair CLR 17.2 1.7 35% 76 1013.1
06 00:56 S 20 16.09 Fair CLR 17.8 0.6 32% 76 1013.3
05 23:56 S 17 16.09 Fair CLR 17.8 -2.8 25% 76 1013.2
05 22:56 SW 17 16.09 Fair CLR 18.9 -1.7 23.9 18.9 25% 75.95 1012.5
05 21:56 SW 17 16.09 Fair CLR 19.4 -0.6 26% 75.92 1012.1
05 20:56 SW 20 16.09 Fair CLR 20 -0.6 25% 75.84 1011.4
05 19:56 SW 22 16.09 Fair CLR 21.1 -0.6 23% 75.77 1010.4
05 18:56 SW 20 G 28 16.09 Fair CLR 22.2 -0.6 22% 75.74 1009.8
05 17:56 SW 15 16.09 Fair CLR 22.8 -1.1 20% 75.72 1009.7
05 16:56 Vrbl 7 16.09 Fair CLR 23.3 -3.9 23.9 19.4 16% 75.69 1009.3
05 15:56 Vrbl 9 16.09 Fair CLR 23.3 -2.8 17% 75.72 1009.6
05 14:56 W 13 16.09 Fair CLR 23.3 -1.7 19% 75.77 1010.1
05 13:56 Calm 16.09 A Few Clouds FEW090 21.7 -1.7 21% 75.82 1010.8
05 12:56 W 11 16.09 Mostly Cloudy BKN080 21.1 -0.6 23% 75.82 1011.1
05 11:56 Vrbl 11 16.09 Fair CLR 20 -0.6 25% 75.87 1011.6
05 10:56 Vrbl 6 G 28 16.09 A Few Clouds FEW070 20 0.6 20 12.2 27% 75.87 1011.6
05 09:56 S 19 16.09 Fair CLR 18.9 1.1 30% 75.87 1011.5
05 08:56 SW 26 16.09 Fair CLR 16.1 1.7 38% 75.87 1011.8
05 07:56 S 17 16.09 Fair CLR 15.6 2.8 42% 75.87 1011.7
05 06:56 SW 24 16.09 Fair CLR 13.9 2.8 47% 75.82 1011.2
05 05:56 S 22 16.09 Fair CLR 12.8 2.2 49% 75.79 1010.8
05 04:56 S 19 16.09 Fair CLR 12.2 2.2 17.2 12.2 51% 75.79 1010.7
05 03:56 S 15 16.09 Fair CLR 12.8 1.7 47% 75.79 1010.5
05 02:56 S 13 16.09 Fair CLR 13.3 1.7 46% 75.79 1010.7
05 01:56 S 20 16.09 Fair CLR 14.4 2.2 44% 75.79 1010.6
05 00:56 S 13 16.09 Fair CLR 15 1.7 41% 75.82 1010.9
04 23:56 SW 22 16.09 Fair CLR 15.6 1.1 38% 75.82 1010.8
04 22:56 SW 19 16.09 Fair CLR 17.2 0.6 23.3 17.2 33% 75.79 1010.6
04 21:56 SW 11 16.09 Fair CLR 18.3 0 29% 75.79 1010.5
04 20:56 SW 20 16.09 Fair CLR 19.4 -0.6 26% 75.74 1009.7
04 19:56 SW 20 16.09 Fair CLR 20.6 -1.1 23% 75.64 1008.6
04 18:56 SW 24 16.09 Fair CLR 21.7 -2.8 19% 75.64 1008.4
04 17:56 SW 28 G 39 16.09 Fair CLR 23.3 -2.8 17% 75.64 1008.2
04 16:56 W 30 G 35 16.09 Fair CLR 22.8 -3.3 24.4 20 17% 75.64 1008.4
04 15:56 SW 39 G 44 16.09 Fair and Breezy CLR 24.4 -6.1 13% 24 75.67 1008.1
04 14:56 SW 24 G 39 16.09 Fair CLR 24.4 -7.2 12% 24 75.69 1008.7
04 13:56 SW 28 G 41 16.09 Fair CLR 24.4 -6.7 12% 24 75.74 1009.3
04 12:56 SW 28 G 44 16.09 Fair CLR 23.3 -3.9 16% 75.77 1009.8
04 11:56 SW 31 G 44 16.09 Fair CLR 22.2 -1.1 21% 75.79 1010.1
04 10:56 SW 28 G 41 16.09 Fair CLR 20 1.7 20 15.6 30% 75.84 1010.6
Date Time (pdt) Wind (kph) Vis. (km) Weather Sky Cond. Air Dwpt Max. Min. Relative Humidity Wind Chill (°C) Heat Index (°C) altimeter (cm) sea level (mb) 1 hr 3 hr 6 hr
6 hour
Temperature (ºC) Pressure Precipitation (cm)